createdAt,value
2023-04-29T00:00:43.963Z,2.10
2023-04-29T00:03:10.816Z,2.22
2023-04-29T00:05:37.839Z,2.97
2023-04-29T00:08:04.881Z,3.30
2023-04-29T00:10:31.600Z,3.08
2023-04-29T00:12:58.226Z,2.22
2023-04-29T00:15:24.912Z,2.20
2023-04-29T00:17:51.554Z,2.83
2023-04-29T00:20:18.725Z,2.60
2023-04-29T00:22:45.400Z,2.33
2023-04-29T00:25:12.298Z,2.25
2023-04-29T00:27:39.478Z,2.03
2023-04-29T00:30:08.261Z,2.70
2023-04-29T00:32:34.971Z,2.58
2023-04-29T00:35:02.316Z,2.30
2023-04-29T00:37:28.916Z,3.70
2023-04-29T00:39:55.536Z,2.72
2023-04-29T00:42:22.469Z,2.85
2023-04-29T00:44:49.088Z,2.53
2023-04-29T00:47:15.722Z,2.88
2023-04-29T00:49:42.374Z,2.80
2023-04-29T00:52:11.632Z,2.72
2023-04-29T00:54:39.154Z,2.78
2023-04-29T00:57:06.372Z,2.83
2023-04-29T00:59:34.509Z,2.42
2023-04-29T01:02:02.997Z,2.33
2023-04-29T01:04:30.620Z,2.35
2023-04-29T01:07:10.075Z,2.30
2023-04-29T01:09:57.895Z,2.43
2023-04-29T01:12:30.416Z,2.50
2023-04-29T01:15:19.792Z,2.92
2023-04-29T01:18:00.338Z,3.53
2023-04-29T01:20:28.252Z,2.33
2023-04-29T01:22:55.142Z,2.58
2023-04-29T01:25:21.776Z,2.80
2023-04-29T01:28:21.041Z,3.10
2023-04-29T01:30:59.727Z,2.60
2023-04-29T01:33:48.303Z,2.45
2023-04-29T01:36:22.686Z,2.80
2023-04-29T01:39:25.877Z,2.95
2023-04-29T01:42:15.168Z,2.53
2023-04-29T01:44:43.717Z,2.30
2023-04-29T01:47:13.996Z,2.13
2023-04-29T01:52:07.676Z,1.70
2023-04-29T01:54:37.132Z,2.15
2023-04-29T01:57:04.347Z,1.93
2023-04-29T01:59:31.697Z,1.65
2023-04-29T02:01:58.981Z,2.00
2023-04-29T02:04:26.340Z,2.17
2023-04-29T02:06:52.980Z,1.90
2023-04-29T02:09:19.688Z,2.25
2023-04-29T02:11:46.366Z,1.73
2023-04-29T02:14:13.004Z,1.75
2023-04-29T02:16:39.736Z,2.35
2023-04-29T02:19:06.375Z,1.92
2023-04-29T02:21:35.012Z,1.60
2023-04-29T02:24:01.635Z,2.20
2023-04-29T02:26:28.389Z,2.05
2023-04-29T02:28:57.136Z,1.90
2023-04-29T02:31:23.904Z,1.77
2023-04-29T02:33:50.675Z,2.08
2023-04-29T02:36:18.275Z,1.70
2023-04-29T02:38:44.883Z,1.45
2023-04-29T02:41:17.043Z,1.67
2023-04-29T02:43:44.844Z,2.83
2023-04-29T02:46:11.813Z,2.35
2023-04-29T02:48:38.512Z,1.40
2023-04-29T02:51:05.208Z,1.65
2023-04-29T02:53:31.832Z,1.60
2023-04-29T02:55:58.499Z,1.85
2023-04-29T02:58:25.882Z,1.48
2023-04-29T03:00:52.627Z,1.80
2023-04-29T03:03:19.446Z,1.70
2023-04-29T03:05:46.204Z,1.73
2023-04-29T03:08:12.795Z,1.85
2023-04-29T03:10:41.477Z,1.85
2023-04-29T03:13:08.469Z,1.65
2023-04-29T03:15:35.416Z,1.92
2023-04-29T03:18:04.047Z,1.77
2023-04-29T03:20:31.065Z,1.92
2023-04-29T03:22:57.798Z,3.10
2023-04-29T03:25:24.580Z,1.85
2023-04-29T03:27:51.545Z,1.65
2023-04-29T03:30:18.232Z,2.17
2023-04-29T03:32:44.892Z,1.90
2023-04-29T03:35:14.082Z,1.80
2023-04-29T03:37:44.308Z,2.00
2023-04-29T03:40:12.018Z,2.42
2023-04-29T03:42:38.647Z,1.73
2023-04-29T03:45:06.365Z,1.70
2023-04-29T03:47:33.070Z,1.90
2023-04-29T03:49:59.770Z,1.50
2023-04-29T03:52:26.436Z,1.50
2023-04-29T03:54:53.055Z,2.08
2023-04-29T03:57:19.657Z,1.90
2023-04-29T03:59:50.380Z,1.83
2023-04-29T04:02:17.293Z,1.70
2023-04-29T04:04:44.323Z,2.00
2023-04-29T04:07:11.624Z,1.63
2023-04-29T04:09:38.738Z,2.17
2023-04-29T04:12:06.708Z,1.80
2023-04-29T04:14:33.529Z,2.35
2023-04-29T04:17:00.641Z,2.30
2023-04-29T04:19:29.073Z,2.25
2023-04-29T04:21:55.807Z,2.22
2023-04-29T04:24:23.120Z,2.70
2023-04-29T04:26:49.888Z,2.40
2023-04-29T04:29:16.540Z,2.17
2023-04-29T04:31:45.497Z,1.80
2023-04-29T04:36:40.070Z,1.92
2023-04-29T04:39:06.757Z,1.63
2023-04-29T04:41:33.448Z,2.17
2023-04-29T04:44:00.043Z,1.92
2023-04-29T04:46:26.674Z,1.80
2023-04-29T04:48:53.259Z,1.42
2023-04-29T04:51:21.115Z,1.95
2023-04-29T04:53:47.728Z,1.60
2023-04-29T04:56:14.370Z,1.38
2023-04-29T04:58:40.960Z,1.45
2023-04-29T05:01:07.956Z,1.20
2023-04-29T05:03:34.804Z,2.75
2023-04-29T05:06:01.549Z,1.33
2023-04-29T05:08:28.381Z,1.20
2023-04-29T05:10:55.011Z,1.55
2023-04-29T05:13:21.822Z,0.90
2023-04-29T05:15:48.414Z,1.20
2023-04-29T05:18:15.006Z,1.20
2023-04-29T05:20:41.624Z,1.65
2023-04-29T05:23:08.890Z,2.25
2023-04-29T05:25:35.815Z,2.17
2023-04-29T05:28:04.199Z,1.70
2023-04-29T05:30:30.832Z,1.75
2023-04-29T05:32:57.560Z,1.40
2023-04-29T05:35:24.273Z,1.60
2023-04-29T05:37:51.167Z,1.83
2023-04-29T05:40:17.938Z,2.15
2023-04-29T05:42:44.604Z,2.92
2023-04-29T05:45:12.397Z,3.20
2023-04-29T05:47:39.100Z,2.65
2023-04-29T05:50:06.501Z,2.75
2023-04-29T05:52:33.248Z,3.08
2023-04-29T05:54:59.847Z,3.05
2023-04-29T05:57:26.452Z,4.05
2023-04-29T05:59:55.187Z,3.00
2023-04-29T06:02:22.523Z,3.40
2023-04-29T06:04:49.582Z,2.38
2023-04-29T06:07:19.541Z,2.40
2023-04-29T06:12:13.590Z,2.28
2023-04-29T06:14:40.414Z,2.22
2023-04-29T06:17:07.002Z,2.00
2023-04-29T06:19:34.117Z,2.20
2023-04-29T06:22:00.855Z,2.10
2023-04-29T06:24:27.522Z,1.95
2023-04-29T06:26:54.189Z,2.10
2023-04-29T06:29:20.824Z,2.30
2023-04-29T06:31:47.519Z,1.60
2023-04-29T06:34:14.239Z,2.10
2023-04-29T06:36:41.604Z,2.15
2023-04-29T06:39:08.279Z,2.00
2023-04-29T06:41:35.011Z,1.80
2023-04-29T06:44:01.687Z,2.08
2023-04-29T06:46:29.175Z,1.77
2023-04-29T06:48:55.891Z,1.67
2023-04-29T06:51:22.550Z,1.55
2023-04-29T06:53:49.318Z,1.83
2023-04-29T06:56:17.175Z,1.65
2023-04-29T06:58:43.914Z,1.90
2023-04-29T07:01:11.028Z,1.92
2023-04-29T07:03:38.337Z,1.65
2023-04-29T07:06:05.135Z,1.80
2023-04-29T07:08:32.256Z,1.95
2023-04-29T07:10:59.011Z,1.77
2023-04-29T07:13:26.146Z,2.17
2023-04-29T07:15:53.037Z,2.15
2023-04-29T07:18:19.809Z,1.95
2023-04-29T07:20:47.932Z,1.98
2023-04-29T07:23:15.099Z,1.90
2023-04-29T07:25:41.923Z,1.40
2023-04-29T07:28:09.139Z,1.88
2023-04-29T07:30:36.339Z,1.67
2023-04-29T07:33:04.288Z,1.88
2023-04-29T07:35:31.510Z,1.70
2023-04-29T07:37:58.199Z,1.65
2023-04-29T07:40:24.806Z,1.80
2023-04-29T07:42:51.454Z,1.50
2023-04-29T07:45:18.156Z,1.65
2023-04-29T07:47:45.642Z,1.70
2023-04-29T07:50:12.582Z,1.48
2023-04-29T07:52:39.205Z,1.30
2023-04-29T07:55:06.209Z,1.30
2023-04-29T07:57:32.881Z,1.15
2023-04-29T07:59:59.681Z,1.45
2023-04-29T08:02:26.447Z,1.83
2023-04-29T08:04:54.930Z,1.58
2023-04-29T08:07:21.920Z,1.77
2023-04-29T08:09:48.546Z,1.50
2023-04-29T08:12:15.166Z,1.27
2023-04-29T08:14:41.837Z,1.40
2023-04-29T08:17:08.663Z,1.73
2023-04-29T08:19:35.797Z,1.42
2023-04-29T08:22:04.131Z,1.90
2023-04-29T08:24:31.020Z,1.38
2023-04-29T08:26:58.826Z,1.33
2023-04-29T08:29:25.468Z,1.85
2023-04-29T08:31:52.292Z,1.75
2023-04-29T08:34:19.010Z,1.75
2023-04-29T08:36:45.668Z,1.60
2023-04-29T08:39:12.408Z,1.80
2023-04-29T08:41:39.383Z,1.55
2023-04-29T08:44:06.346Z,2.17
2023-04-29T08:46:33.090Z,1.83
2023-04-29T08:49:01.842Z,1.60
2023-04-29T08:51:28.885Z,1.73
2023-04-29T08:53:56.675Z,1.38
2023-04-29T08:56:23.313Z,1.63
2023-04-29T08:58:58.918Z,1.88
2023-04-29T09:01:28.880Z,1.85
2023-04-29T09:04:29.361Z,2.20
2023-04-29T09:06:57.800Z,2.05
2023-04-29T09:09:25.109Z,1.80
2023-04-29T09:11:52.149Z,2.08
2023-04-29T09:14:20.106Z,1.83
2023-04-29T09:16:47.717Z,1.77
2023-04-29T09:19:33.286Z,1.63
2023-04-29T09:22:01.243Z,1.88
2023-04-29T09:24:29.636Z,2.17
2023-04-29T09:26:57.292Z,2.80
2023-04-29T09:29:24.141Z,2.58
2023-04-29T09:31:53.552Z,1.98
2023-04-29T09:34:36.006Z,2.30
2023-04-29T09:37:02.599Z,2.60
2023-04-29T09:39:38.980Z,2.78
2023-04-29T09:42:06.223Z,2.80
2023-04-29T09:44:37.867Z,2.92
2023-04-29T09:47:09.003Z,2.92
2023-04-29T09:49:38.319Z,3.20
2023-04-29T09:52:06.568Z,2.70
2023-04-29T09:54:36.260Z,2.67
2023-04-29T09:57:05.996Z,2.88
2023-04-29T09:59:37.620Z,2.67
2023-04-29T10:02:15.181Z,2.90
2023-04-29T10:04:44.527Z,3.55
2023-04-29T10:07:15.765Z,2.87
2023-04-29T10:09:44.050Z,2.80
2023-04-29T10:12:11.088Z,3.55
2023-04-29T10:14:44.642Z,3.22
2023-04-29T10:17:18.561Z,3.08
2023-04-29T10:20:07.426Z,2.90
2023-04-29T10:22:42.976Z,3.05
2023-04-29T10:25:11.740Z,3.15
2023-04-29T10:27:39.722Z,2.85
2023-04-29T10:30:09.571Z,2.97
2023-04-29T10:32:50.589Z,3.15
2023-04-29T10:35:20.289Z,3.60
2023-04-29T10:37:51.301Z,3.40
2023-04-29T10:40:40.173Z,3.63
2023-04-29T10:43:06.951Z,3.40
2023-04-29T10:45:36.720Z,3.33
2023-04-29T10:48:05.774Z,2.90
2023-04-29T10:50:47.493Z,2.75
2023-04-29T10:53:23.573Z,2.95
2023-04-29T10:56:05.881Z,2.95
2023-04-29T10:58:46.005Z,2.72
2023-04-29T11:01:15.107Z,3.15
2023-04-29T11:03:55.038Z,2.58
2023-04-29T11:06:35.818Z,2.60
2023-04-29T11:11:43.525Z,2.58
2023-04-29T11:14:12.420Z,2.10
2023-04-29T11:16:47.205Z,2.75
2023-04-29T11:19:16.178Z,2.67
2023-04-29T11:21:44.452Z,2.50
2023-04-29T11:24:12.740Z,1.75
2023-04-29T11:26:39.374Z,2.10
2023-04-29T11:29:10.431Z,1.80
2023-04-29T11:31:39.138Z,2.22
2023-04-29T11:34:07.359Z,2.08
2023-04-29T11:36:34.838Z,1.70
2023-04-29T11:39:03.724Z,1.90
2023-04-29T11:41:31.564Z,1.80
2023-04-29T11:43:59.587Z,2.40
2023-04-29T11:46:28.935Z,2.40
2023-04-29T11:48:58.069Z,2.60
2023-04-29T11:51:24.959Z,2.50
2023-04-29T11:53:51.731Z,2.38
2023-04-29T11:56:22.923Z,1.85
2023-04-29T11:58:49.792Z,2.17
2023-04-29T12:01:16.547Z,2.00
2023-04-29T12:03:44.331Z,1.83
2023-04-29T12:06:13.555Z,1.98
2023-04-29T12:08:40.238Z,1.90
2023-04-29T12:11:07.713Z,2.05
2023-04-29T12:13:37.680Z,2.13
2023-04-29T12:16:05.834Z,2.40
2023-04-29T12:18:32.776Z,2.60
2023-04-29T12:20:59.506Z,2.65
2023-04-29T12:23:27.320Z,2.45
2023-04-29T12:25:56.902Z,2.10
2023-04-29T12:28:24.166Z,2.83
2023-04-29T12:30:54.220Z,2.92
2023-04-29T12:33:28.667Z,2.65
2023-04-29T12:35:58.314Z,2.53
2023-04-29T12:38:29.543Z,2.70
2023-04-29T12:40:58.920Z,2.33
2023-04-29T12:43:29.790Z,2.43
2023-04-29T12:46:10.185Z,3.45
2023-04-29T12:48:43.899Z,2.63
2023-04-29T12:51:11.653Z,2.92
2023-04-29T12:53:39.046Z,1.98
2023-04-29T12:56:06.646Z,1.90
2023-04-29T12:58:34.804Z,1.92
2023-04-29T13:01:01.694Z,2.53
2023-04-29T13:03:28.955Z,3.03
2023-04-29T13:05:55.950Z,2.15
2023-04-29T13:08:22.992Z,1.90
2023-04-29T13:10:49.842Z,2.17
2023-04-29T13:13:16.642Z,2.28
2023-04-29T13:15:43.273Z,2.30
2023-04-29T13:18:09.900Z,2.20
2023-04-29T13:20:41.473Z,1.98
2023-04-29T13:23:09.172Z,1.95
2023-04-29T13:25:35.952Z,1.85
2023-04-29T13:28:02.878Z,2.50
2023-04-29T13:30:29.624Z,2.17
2023-04-29T13:33:01.271Z,1.80
2023-04-29T13:35:36.045Z,1.92
2023-04-29T13:38:02.819Z,2.63
2023-04-29T13:40:29.633Z,2.40
2023-04-29T13:43:04.326Z,3.10
2023-04-29T13:45:38.795Z,3.03
2023-04-29T13:48:16.966Z,2.70
2023-04-29T13:58:56.054Z,3.08
2023-04-29T14:03:35.650Z,3.13
2023-04-29T14:06:02.890Z,2.80
2023-04-29T14:08:29.537Z,2.92
2023-04-29T14:10:56.857Z,2.78
2023-04-29T14:13:23.506Z,3.10
2023-04-29T14:15:50.457Z,3.55
2023-04-29T14:18:17.136Z,3.08
2023-04-29T14:20:43.769Z,3.70
2023-04-29T14:23:10.352Z,3.35
2023-04-29T14:25:36.972Z,3.63
2023-04-29T14:28:04.094Z,3.72
2023-04-29T14:30:30.711Z,3.42
2023-04-29T14:32:57.643Z,3.75
2023-04-29T14:35:24.374Z,3.17
2023-04-29T14:37:51.438Z,3.47
2023-04-29T14:40:18.060Z,3.30
2023-04-29T14:42:44.638Z,3.30
2023-04-29T14:45:12.202Z,3.22
2023-04-29T14:47:38.871Z,3.38
2023-04-29T14:50:06.263Z,3.30
2023-04-29T14:52:32.898Z,3.00
2023-04-29T14:54:59.521Z,3.38
2023-04-29T14:57:26.329Z,2.97
2023-04-29T14:59:52.993Z,3.17
2023-04-29T15:02:19.613Z,2.90
2023-04-29T15:04:46.360Z,2.72
2023-04-29T15:07:13.755Z,3.22
2023-04-29T15:09:40.566Z,3.70
2023-04-29T15:12:07.433Z,4.20
2023-04-29T15:14:34.463Z,3.47
2023-04-29T15:17:01.482Z,3.97
2023-04-29T15:19:28.164Z,3.47
2023-04-29T15:21:54.760Z,3.40
2023-04-29T15:24:21.383Z,3.95
2023-04-29T15:26:48.249Z,4.15
2023-04-29T15:29:14.914Z,3.38
2023-04-29T15:31:41.859Z,3.35
2023-04-29T15:34:08.470Z,3.40
2023-04-29T15:36:35.116Z,3.42
2023-04-29T15:39:01.688Z,3.53
2023-04-29T15:41:28.323Z,4.30
2023-04-29T15:43:57.170Z,4.43
2023-04-29T15:46:23.998Z,4.05
2023-04-29T15:48:50.774Z,3.60
2023-04-29T15:51:17.818Z,4.35
2023-04-29T15:53:44.641Z,3.90
2023-04-29T15:56:11.416Z,4.35
2023-04-29T15:58:38.054Z,4.63
2023-04-29T16:01:04.917Z,5.10
2023-04-29T16:03:31.675Z,4.55
2023-04-29T16:05:58.443Z,5.00
2023-04-29T16:08:25.179Z,5.40
2023-04-29T16:10:52.086Z,4.80
2023-04-29T16:13:18.724Z,4.72
2023-04-29T16:15:45.564Z,5.40
2023-04-29T16:18:13.911Z,4.90
2023-04-29T16:20:40.560Z,4.75
2023-04-29T16:23:07.289Z,4.18
2023-04-29T16:25:33.899Z,4.95
2023-04-29T16:28:00.622Z,4.10
2023-04-29T16:30:27.855Z,4.78
2023-04-29T16:32:54.892Z,4.95
2023-04-29T16:35:26.354Z,4.97
2023-04-29T16:37:55.834Z,5.50
2023-04-29T16:40:24.023Z,5.13
2023-04-29T16:42:51.187Z,4.93
2023-04-29T16:45:18.346Z,6.32
2023-04-29T16:47:45.353Z,6.10
2023-04-29T16:50:12.272Z,6.45
2023-04-29T16:52:38.872Z,5.20
2023-04-29T16:55:05.930Z,5.32
2023-04-29T16:57:33.486Z,4.97
2023-04-29T17:00:00.254Z,5.35
2023-04-29T17:02:27.722Z,5.78
2023-04-29T17:04:54.465Z,5.90
2023-04-29T17:07:21.295Z,5.57
2023-04-29T17:09:48.025Z,5.38
2023-04-29T17:12:14.725Z,5.15
2023-04-29T17:14:41.326Z,4.82
2023-04-29T17:17:07.964Z,5.10
2023-04-29T17:19:34.932Z,5.20
2023-04-29T17:22:01.794Z,5.57
2023-04-29T17:24:28.417Z,5.03
2023-04-29T17:26:56.013Z,4.95
2023-04-29T17:29:22.634Z,5.60
2023-04-29T17:31:54.800Z,5.00
2023-04-29T17:34:25.637Z,5.45
2023-04-29T17:36:53.652Z,5.28
2023-04-29T17:39:20.313Z,5.07
2023-04-29T17:41:46.975Z,5.50
2023-04-29T17:44:13.610Z,5.53
2023-04-29T17:46:40.581Z,6.25
2023-04-29T17:49:07.207Z,5.85
2023-04-29T17:51:33.960Z,5.60
2023-04-29T17:54:06.895Z,5.60
2023-04-29T17:56:34.975Z,6.00
2023-04-29T17:59:02.568Z,6.00
2023-04-29T18:01:29.204Z,7.15
2023-04-29T18:03:55.958Z,7.72
2023-04-29T18:06:22.656Z,8.75
2023-04-29T18:08:49.321Z,7.20
2023-04-29T18:11:16.183Z,7.68
2023-04-29T18:13:42.793Z,8.05
2023-04-29T18:16:09.564Z,8.40
2023-04-29T18:18:37.314Z,8.70
2023-04-29T18:21:04.405Z,7.60
2023-04-29T18:23:31.252Z,7.57
2023-04-29T18:25:57.846Z,7.78
2023-04-29T18:28:25.595Z,8.23
2023-04-29T18:30:52.818Z,8.88
2023-04-29T18:33:19.602Z,8.27
2023-04-29T18:35:46.335Z,8.10
2023-04-29T18:38:16.973Z,8.02
2023-04-29T18:40:44.233Z,8.45
2023-04-29T18:43:11.880Z,8.57
2023-04-29T18:45:38.796Z,9.27
2023-04-29T18:48:06.919Z,8.27
2023-04-29T18:50:33.907Z,8.40
2023-04-29T18:53:00.715Z,8.18
2023-04-29T18:55:27.431Z,9.45
2023-04-29T18:57:54.580Z,9.25
2023-04-29T19:00:21.748Z,9.30
2023-04-29T19:02:48.635Z,8.55
2023-04-29T19:05:15.910Z,8.88
2023-04-29T19:07:43.114Z,9.48
2023-04-29T19:10:09.987Z,8.02
2023-04-29T19:12:36.650Z,8.38
2023-04-29T19:15:03.553Z,8.15
2023-04-29T19:17:30.458Z,9.38
2023-04-29T19:19:57.124Z,8.80
2023-04-29T19:22:23.775Z,8.52
2023-04-29T19:24:50.501Z,8.65
2023-04-29T19:27:17.226Z,9.35
2023-04-29T19:29:43.829Z,9.18
2023-04-29T19:32:10.516Z,9.55
2023-04-29T19:34:37.271Z,9.27
2023-04-29T19:37:04.217Z,9.15
2023-04-29T19:39:30.870Z,9.55
2023-04-29T19:41:58.181Z,9.68
2023-04-29T19:44:25.012Z,8.80
2023-04-29T19:46:53.353Z,9.68
2023-04-29T19:49:20.314Z,8.50
2023-04-29T19:51:47.299Z,10.13
2023-04-29T19:54:13.992Z,9.57
2023-04-29T19:56:40.654Z,9.10
2023-04-29T19:59:07.263Z,9.00
2023-04-29T20:01:34.052Z,9.73
2023-04-29T20:04:00.742Z,10.85
2023-04-29T20:06:28.282Z,9.90
2023-04-29T20:08:54.944Z,10.55
2023-04-29T20:11:21.857Z,10.23
2023-04-29T20:13:48.498Z,9.85
2023-04-29T20:16:15.365Z,10.07
2023-04-29T20:18:42.139Z,9.52
2023-04-29T20:21:08.721Z,10.23
2023-04-29T20:23:35.323Z,10.70
2023-04-29T20:26:03.612Z,9.60
2023-04-29T20:28:30.325Z,10.18
2023-04-29T20:30:56.973Z,11.10
2023-04-29T20:33:23.648Z,10.48
2023-04-29T20:35:51.153Z,11.80
2023-04-29T20:38:17.834Z,12.15
2023-04-29T20:40:44.457Z,11.20
2023-04-29T20:43:11.959Z,10.65
2023-04-29T20:45:38.599Z,10.98
2023-04-29T20:48:05.911Z,10.88
2023-04-29T20:50:32.517Z,11.65
2023-04-29T20:52:59.200Z,11.30
2023-04-29T20:55:25.895Z,11.82
2023-04-29T20:57:52.522Z,11.55
2023-04-29T21:00:19.110Z,10.88
2023-04-29T21:02:46.076Z,11.57
2023-04-29T21:05:12.787Z,11.35
2023-04-29T21:07:39.401Z,10.65
2023-04-29T21:10:06.642Z,11.68
2023-04-29T21:12:33.259Z,11.93
2023-04-29T21:14:59.879Z,10.60
2023-04-29T21:17:26.671Z,11.52
2023-04-29T21:19:53.542Z,10.23
2023-04-29T21:22:20.431Z,9.98
2023-04-29T21:24:47.051Z,10.95
2023-04-29T21:27:13.771Z,10.32
2023-04-29T21:29:41.019Z,10.60
2023-04-29T21:32:08.455Z,9.77
2023-04-29T21:34:35.741Z,9.80
2023-04-29T21:37:02.454Z,9.35
2023-04-29T21:39:31.360Z,8.95
2023-04-29T21:42:00.062Z,8.90
2023-04-29T21:44:26.870Z,9.18
2023-04-29T21:46:53.725Z,9.20
2023-04-29T21:49:21.016Z,8.48
2023-04-29T21:51:47.992Z,9.13
2023-04-29T21:54:14.609Z,8.35
2023-04-29T21:56:41.260Z,8.73
2023-04-29T21:59:07.894Z,8.15
2023-04-29T22:01:48.274Z,8.25
2023-04-29T22:04:17.864Z,7.95
2023-04-29T22:06:44.720Z,8.70
2023-04-29T22:09:11.465Z,8.30
2023-04-29T22:11:38.490Z,8.00
2023-04-29T22:14:05.509Z,8.20
2023-04-29T22:16:33.700Z,7.88
2023-04-29T22:19:00.539Z,8.57
2023-04-29T22:21:28.213Z,7.93
2023-04-29T22:23:55.721Z,8.23
2023-04-29T22:26:25.307Z,7.65
2023-04-29T22:28:52.545Z,8.10
2023-04-29T22:31:19.230Z,7.93
2023-04-29T22:33:45.987Z,7.80
2023-04-29T22:36:12.617Z,7.80
2023-04-29T22:38:39.251Z,8.95
2023-04-29T22:41:07.144Z,7.85
2023-04-29T22:43:33.739Z,7.72
2023-04-29T22:46:00.965Z,7.88
2023-04-29T22:48:28.585Z,7.50
2023-04-29T22:50:56.989Z,8.00
2023-04-29T22:53:23.632Z,7.68
2023-04-29T22:55:54.681Z,7.35
2023-04-29T22:58:22.341Z,6.88
2023-04-29T23:00:57.377Z,7.57
2023-04-29T23:03:24.888Z,7.30
2023-04-29T23:05:51.902Z,8.15
2023-04-29T23:08:18.522Z,8.25
2023-04-29T23:10:51.846Z,7.63
2023-04-29T23:13:18.950Z,8.00
2023-04-29T23:15:45.920Z,7.78
2023-04-29T23:18:12.701Z,7.40
2023-04-29T23:20:39.492Z,7.63
2023-04-29T23:23:06.189Z,7.47
2023-04-29T23:25:32.795Z,8.18
2023-04-29T23:27:59.417Z,7.45
2023-04-29T23:30:26.164Z,8.95
2023-04-29T23:32:52.800Z,7.70
2023-04-29T23:35:19.459Z,8.63
2023-04-29T23:37:46.058Z,8.18
2023-04-29T23:40:12.753Z,8.98
2023-04-29T23:42:39.367Z,8.48
2023-04-29T23:45:06.669Z,9.02
2023-04-29T23:47:33.381Z,9.43
2023-04-29T23:50:00.022Z,8.23
2023-04-29T23:52:26.729Z,8.85
2023-04-29T23:54:53.384Z,8.85
2023-04-29T23:57:19.961Z,8.70
2023-04-29T23:59:46.612Z,9.45
